sensor_id;sensor_type;location;lat;lon;timestamp;pressure;altitude;pressure_sealevel;temperature;humidity
71956;BME280;59829;50.562;6.258;2023-07-13T00:00:52;95789.88;;;16.35;63.04
71956;BME280;59829;50.562;6.258;2023-07-13T00:10:52;95799.28;;;16.02;64.02
71956;BME280;59829;50.562;6.258;2023-07-13T00:20:56;95815.63;;;15.76;65.31
71956;BME280;59829;50.562;6.258;2023-07-13T00:31:05;95803.53;;;15.51;66.30
71956;BME280;59829;50.562;6.258;2023-07-13T00:41:05;95806.31;;;15.31;67.32
71956;BME280;59829;50.562;6.258;2023-07-13T00:51:06;95790.22;;;15.12;68.08
71956;BME280;59829;50.562;6.258;2023-07-13T01:01:06;95797.69;;;14.97;68.92
71956;BME280;59829;50.562;6.258;2023-07-13T01:11:06;95788.97;;;14.98;69.91
71956;BME280;59829;50.562;6.258;2023-07-13T01:21:08;95794.44;;;14.95;70.55
71956;BME280;59829;50.562;6.258;2023-07-13T01:31:09;95790.94;;;15.04;70.73
71956;BME280;59829;50.562;6.258;2023-07-13T01:41:09;95791.28;;;14.83;70.36
71956;BME280;59829;50.562;6.258;2023-07-13T01:51:09;95789.00;;;14.62;70.93
71956;BME280;59829;50.562;6.258;2023-07-13T02:01:10;95799.31;;;14.62;71.54
71956;BME280;59829;50.562;6.258;2023-07-13T02:11:11;95804.69;;;14.69;72.00
71956;BME280;59829;50.562;6.258;2023-07-13T02:21:11;95806.25;;;14.80;72.07
71956;BME280;59829;50.562;6.258;2023-07-13T02:31:13;95811.09;;;14.83;72.02
71956;BME280;59829;50.562;6.258;2023-07-13T02:41:15;95803.81;;;14.78;72.06
71956;BME280;59829;50.562;6.258;2023-07-13T02:51:15;95812.34;;;14.78;72.15
71956;BME280;59829;50.562;6.258;2023-07-13T03:01:15;95798.50;;;14.80;72.46
71956;BME280;59829;50.562;6.258;2023-07-13T03:11:19;95808.97;;;14.78;72.36
71956;BME280;59829;50.562;6.258;2023-07-13T03:21:20;95817.41;;;14.70;72.51
71956;BME280;59829;50.562;6.258;2023-07-13T03:31:24;95814.47;;;14.65;72.60
71956;BME280;59829;50.562;6.258;2023-07-13T03:41:25;95816.47;;;14.54;72.79
71956;BME280;59829;50.562;6.258;2023-07-13T03:51:25;95824.63;;;14.49;73.36
71956;BME280;59829;50.562;6.258;2023-07-13T04:01:26;95819.53;;;14.57;73.97
71956;BME280;59829;50.562;6.258;2023-07-13T04:11:28;95833.63;;;14.45;74.06
71956;BME280;59829;50.562;6.258;2023-07-13T04:21:30;95837.53;;;14.49;74.76
71956;BME280;59829;50.562;6.258;2023-07-13T04:31:31;95837.16;;;14.44;75.36
71956;BME280;59829;50.562;6.258;2023-07-13T04:41:31;95841.44;;;14.53;76.21
71956;BME280;59829;50.562;6.258;2023-07-13T04:51:32;95846.44;;;14.72;76.99
71956;BME280;59829;50.562;6.258;2023-07-13T05:01:32;95842.91;;;14.91;77.72
71956;BME280;59829;50.562;6.258;2023-07-13T05:11:32;95854.56;;;15.13;78.49
71956;BME280;59829;50.562;6.258;2023-07-13T05:21:33;95864.75;;;15.41;79.36
71956;BME280;59829;50.562;6.258;2023-07-13T05:31:33;95866.28;;;15.69;79.89
71956;BME280;59829;50.562;6.258;2023-07-13T05:41:34;95874.63;;;15.89;80.36
71956;BME280;59829;50.562;6.258;2023-07-13T05:51:34;95867.44;;;16.01;80.32
71956;BME280;59829;50.562;6.258;2023-07-13T06:01:34;95870.38;;;16.14;80.67
71956;BME280;59829;50.562;6.258;2023-07-13T06:11:35;95887.91;;;16.28;80.71
71956;BME280;59829;50.562;6.258;2023-07-13T06:21:35;95904.13;;;16.46;81.04
71956;BME280;59829;50.562;6.258;2023-07-13T06:31:35;95907.09;;;16.59;80.54
71956;BME280;59829;50.562;6.258;2023-07-13T06:41:36;95909.75;;;16.68;80.72
71956;BME280;59829;50.562;6.258;2023-07-13T06:51:36;95913.31;;;16.67;80.06
71956;BME280;59829;50.562;6.258;2023-07-13T07:01:36;95921.72;;;16.69;79.93
71956;BME280;59829;50.562;6.258;2023-07-13T07:11:37;95925.13;;;16.77;79.72
71956;BME280;59829;50.562;6.258;2023-07-13T07:21:37;95927.91;;;16.92;79.67
71956;BME280;59829;50.562;6.258;2023-07-13T07:31:37;95928.75;;;17.09;79.42
71956;BME280;59829;50.562;6.258;2023-07-13T07:41:37;95939.28;;;17.32;79.42
71956;BME280;59829;50.562;6.258;2023-07-13T07:51:38;95942.53;;;17.50;78.96
71956;BME280;59829;50.562;6.258;2023-07-13T08:01:38;95939.31;;;17.64;78.18
71956;BME280;59829;50.562;6.258;2023-07-13T08:11:39;95946.13;;;17.82;77.78
71956;BME280;59829;50.562;6.258;2023-07-13T08:21:39;95933.19;;;17.90;77.18
71956;BME280;59829;50.562;6.258;2023-07-13T08:31:39;95932.69;;;17.94;76.58
71956;BME280;59829;50.562;6.258;2023-07-13T08:41:39;95922.78;;;18.06;75.83
71956;BME280;59829;50.562;6.258;2023-07-13T08:51:45;95936.38;;;18.08;75.30
71956;BME280;59829;50.562;6.258;2023-07-13T09:12:19;95935.72;;;18.14;74.41
71956;BME280;59829;50.562;6.258;2023-07-13T09:22:24;95942.59;;;18.38;74.35
71956;BME280;59829;50.562;6.258;2023-07-13T09:32:28;95936.59;;;18.46;73.39
71956;BME280;59829;50.562;6.258;2023-07-13T09:42:29;95931.72;;;18.51;73.07
71956;BME280;59829;50.562;6.258;2023-07-13T10:02:40;95938.31;;;18.61;71.96
71956;BME280;59829;50.562;6.258;2023-07-13T10:12:41;95949.84;;;18.59;71.47
71956;BME280;59829;50.562;6.258;2023-07-13T10:22:52;95950.19;;;18.64;70.66
71956;BME280;59829;50.562;6.258;2023-07-13T10:32:58;95971.25;;;18.69;70.12
71956;BME280;59829;50.562;6.258;2023-07-13T10:43:05;95972.19;;;18.76;69.55
71956;BME280;59829;50.562;6.258;2023-07-13T10:53:30;95976.34;;;18.85;68.80
71956;BME280;59829;50.562;6.258;2023-07-13T11:03:33;95976.28;;;19.02;68.38
71956;BME280;59829;50.562;6.258;2023-07-13T11:24:03;96003.53;;;19.06;67.36
71956;BME280;59829;50.562;6.258;2023-07-13T11:34:13;95991.97;;;19.08;67.29
71956;BME280;59829;50.562;6.258;2023-07-13T11:44:18;96006.75;;;19.08;66.67
71956;BME280;59829;50.562;6.258;2023-07-13T11:54:29;96005.47;;;19.04;66.15
71956;BME280;59829;50.562;6.258;2023-07-13T12:04:32;96002.59;;;18.98;66.11
71956;BME280;59829;50.562;6.258;2023-07-13T12:14:33;96013.09;;;19.05;66.33
71956;BME280;59829;50.562;6.258;2023-07-13T12:24:34;96008.06;;;19.12;66.26
71956;BME280;59829;50.562;6.258;2023-07-13T12:34:53;96011.28;;;19.14;65.81
71956;BME280;59829;50.562;6.258;2023-07-13T12:44:58;96012.91;;;19.15;65.51
71956;BME280;59829;50.562;6.258;2023-07-13T12:55:06;96024.69;;;19.25;64.97
71956;BME280;59829;50.562;6.258;2023-07-13T13:05:12;96007.91;;;19.36;65.16
71956;BME280;59829;50.562;6.258;2023-07-13T13:15:14;96016.34;;;19.38;64.59
71956;BME280;59829;50.562;6.258;2023-07-13T13:25:15;96015.81;;;19.43;64.69
71956;BME280;59829;50.562;6.258;2023-07-13T13:35:17;96009.00;;;19.42;64.44
71956;BME280;59829;50.562;6.258;2023-07-13T13:45:18;95996.78;;;19.50;64.67
71956;BME280;59829;50.562;6.258;2023-07-13T13:55:21;96009.72;;;19.58;64.20
71956;BME280;59829;50.562;6.258;2023-07-13T14:05:23;95987.91;;;19.68;63.87
71956;BME280;59829;50.562;6.258;2023-07-13T14:15:27;95995.63;;;19.76;63.48
71956;BME280;59829;50.562;6.258;2023-07-13T14:25:28;95984.91;;;19.79;63.27
71956;BME280;59829;50.562;6.258;2023-07-13T14:35:29;96005.75;;;19.71;63.02
71956;BME280;59829;50.562;6.258;2023-07-13T14:45:30;95991.72;;;19.80;62.92
71956;BME280;59829;50.562;6.258;2023-07-13T14:55:31;95994.59;;;19.85;62.58
71956;BME280;59829;50.562;6.258;2023-07-13T15:05:32;95982.25;;;19.87;62.29
71956;BME280;59829;50.562;6.258;2023-07-13T15:15:33;96001.78;;;19.83;62.29
71956;BME280;59829;50.562;6.258;2023-07-13T15:25:35;96002.59;;;19.83;62.17
71956;BME280;59829;50.562;6.258;2023-07-13T15:35:35;96000.16;;;19.82;61.79
71956;BME280;59829;50.562;6.258;2023-07-13T15:45:35;95990.75;;;19.81;61.63
71956;BME280;59829;50.562;6.258;2023-07-13T15:55:39;95977.94;;;19.79;61.67
71956;BME280;59829;50.562;6.258;2023-07-13T16:05:42;95972.38;;;19.82;61.85
71956;BME280;59829;50.562;6.258;2023-07-13T16:15:42;95970.50;;;19.91;61.83
71956;BME280;59829;50.562;6.258;2023-07-13T16:25:45;95977.84;;;19.87;61.75
71956;BME280;59829;50.562;6.258;2023-07-13T16:35:46;95974.63;;;19.85;61.63
71956;BME280;59829;50.562;6.258;2023-07-13T16:45:47;95992.19;;;19.83;61.64
71956;BME280;59829;50.562;6.258;2023-07-13T16:55:49;96002.69;;;19.90;62.28
71956;BME280;59829;50.562;6.258;2023-07-13T17:05:50;96002.69;;;19.90;62.93
71956;BME280;59829;50.562;6.258;2023-07-13T17:15:52;96008.81;;;19.97;63.38
71956;BME280;59829;50.562;6.258;2023-07-13T17:25:56;96017.25;;;19.99;63.71
71956;BME280;59829;50.562;6.258;2023-07-13T17:46:53;96008.81;;;19.97;64.36
71956;BME280;59829;50.562;6.258;2023-07-13T17:56:54;96002.94;;;20.18;64.64
71956;BME280;59829;50.562;6.258;2023-07-13T18:06:54;96013.59;;;20.23;64.68
71956;BME280;59829;50.562;6.258;2023-07-13T18:16:57;96010.03;;;20.24;64.50
71956;BME280;59829;50.562;6.258;2023-07-13T18:27:01;96010.47;;;20.28;64.64
71956;BME280;59829;50.562;6.258;2023-07-13T18:37:01;96022.84;;;20.26;64.45
71956;BME280;59829;50.562;6.258;2023-07-13T18:47:01;96018.53;;;20.18;64.64
71956;BME280;59829;50.562;6.258;2023-07-13T18:57:02;96024.59;;;20.10;64.92
71956;BME280;59829;50.562;6.258;2023-07-13T19:07:04;96028.16;;;19.95;64.55
71956;BME280;59829;50.562;6.258;2023-07-13T19:17:10;96028.00;;;19.73;64.70
71956;BME280;59829;50.562;6.258;2023-07-13T19:27:12;96031.84;;;19.54;64.81
71956;BME280;59829;50.562;6.258;2023-07-13T19:37:23;96042.03;;;19.33;64.80
71956;BME280;59829;50.562;6.258;2023-07-13T19:47:24;96053.03;;;19.04;65.36
71956;BME280;59829;50.562;6.258;2023-07-13T19:57:26;96058.00;;;18.75;65.94
71956;BME280;59829;50.562;6.258;2023-07-13T20:07:28;96060.13;;;18.47;66.31
71956;BME280;59829;50.562;6.258;2023-07-13T20:17:38;96066.97;;;18.15;66.60
71956;BME280;59829;50.562;6.258;2023-07-13T20:27:40;96072.16;;;17.91;67.30
71956;BME280;59829;50.562;6.258;2023-07-13T20:37:41;96073.69;;;17.67;67.95
71956;BME280;59829;50.562;6.258;2023-07-13T20:47:45;96073.66;;;17.51;68.84
71956;BME280;59829;50.562;6.258;2023-07-13T20:57:46;96072.00;;;17.34;69.45
71956;BME280;59829;50.562;6.258;2023-07-13T21:07:48;96082.00;;;17.21;70.11
71956;BME280;59829;50.562;6.258;2023-07-13T21:17:51;96079.06;;;17.15;71.03
71956;BME280;59829;50.562;6.258;2023-07-13T21:27:55;96084.22;;;17.15;72.04
71956;BME280;59829;50.562;6.258;2023-07-13T21:37:56;96080.19;;;17.13;73.18
71956;BME280;59829;50.562;6.258;2023-07-13T21:47:57;96099.09;;;17.13;73.77
71956;BME280;59829;50.562;6.258;2023-07-13T21:57:57;96090.53;;;17.13;74.52
71956;BME280;59829;50.562;6.258;2023-07-13T22:07:57;96087.78;;;17.14;75.50
71956;BME280;59829;50.562;6.258;2023-07-13T22:17:58;96086.31;;;17.04;75.60
71956;BME280;59829;50.562;6.258;2023-07-13T22:28:01;96092.94;;;17.06;76.33
71956;BME280;59829;50.562;6.258;2023-07-13T22:38:01;96089.72;;;17.12;76.82
71956;BME280;59829;50.562;6.258;2023-07-13T22:48:01;96081.00;;;17.13;76.23
71956;BME280;59829;50.562;6.258;2023-07-13T22:58:02;96080.19;;;17.13;75.93
71956;BME280;59829;50.562;6.258;2023-07-13T23:08:02;96074.81;;;17.06;76.06
71956;BME280;59829;50.562;6.258;2023-07-13T23:18:03;96062.03;;;17.05;76.79
71956;BME280;59829;50.562;6.258;2023-07-13T23:28:04;96054.06;;;16.90;77.27
71956;BME280;59829;50.562;6.258;2023-07-13T23:38:04;96055.50;;;16.84;77.83
71956;BME280;59829;50.562;6.258;2023-07-13T23:48:09;96055.09;;;16.71;78.09
71956;BME280;59829;50.562;6.258;2023-07-13T23:58:10;96056.78;;;16.63;78.75
